sensor_id;sensor_type;location;lat;lon;timestamp;temperature;humidity
4245;DHT22;2136;48.502;9.194;2023-02-19T00:00:57;12.30;72.50
4245;DHT22;2136;48.502;9.194;2023-02-19T00:03:25;12.30;72.60
4245;DHT22;2136;48.502;9.194;2023-02-19T00:05:52;12.30;72.50
4245;DHT22;2136;48.502;9.194;2023-02-19T00:08:19;12.30;72.60
4245;DHT22;2136;48.502;9.194;2023-02-19T00:10:45;12.40;72.80
4245;DHT22;2136;48.502;9.194;2023-02-19T00:13:14;12.20;72.70
4245;DHT22;2136;48.502;9.194;2023-02-19T00:15:40;12.20;72.90
4245;DHT22;2136;48.502;9.194;2023-02-19T00:18:07;12.20;73.10
4245;DHT22;2136;48.502;9.194;2023-02-19T00:20:34;12.20;73.30
4245;DHT22;2136;48.502;9.194;2023-02-19T00:23:01;12.30;73.70
4245;DHT22;2136;48.502;9.194;2023-02-19T00:25:27;12.20;73.60
4245;DHT22;2136;48.502;9.194;2023-02-19T00:27:54;12.20;73.70
4245;DHT22;2136;48.502;9.194;2023-02-19T00:30:22;12.20;73.70
4245;DHT22;2136;48.502;9.194;2023-02-19T00:32:49;12.20;73.90
4245;DHT22;2136;48.502;9.194;2023-02-19T00:35:16;12.20;74.00
4245;DHT22;2136;48.502;9.194;2023-02-19T00:37:43;12.20;73.90
4245;DHT22;2136;48.502;9.194;2023-02-19T00:40:10;12.20;73.90
4245;DHT22;2136;48.502;9.194;2023-02-19T00:42:37;12.20;73.90
4245;DHT22;2136;48.502;9.194;2023-02-19T00:45:04;12.30;74.00
4245;DHT22;2136;48.502;9.194;2023-02-19T00:47:32;12.30;74.00
4245;DHT22;2136;48.502;9.194;2023-02-19T00:49:59;12.30;73.70
4245;DHT22;2136;48.502;9.194;2023-02-19T00:52:26;12.30;73.60
4245;DHT22;2136;48.502;9.194;2023-02-19T00:54:53;12.30;73.40
4245;DHT22;2136;48.502;9.194;2023-02-19T00:57:19;12.30;73.30
4245;DHT22;2136;48.502;9.194;2023-02-19T00:59:46;12.30;73.20
4245;DHT22;2136;48.502;9.194;2023-02-19T01:02:13;12.30;74.00
4245;DHT22;2136;48.502;9.194;2023-02-19T01:04:41;12.40;73.30
4245;DHT22;2136;48.502;9.194;2023-02-19T01:07:08;12.40;73.30
4245;DHT22;2136;48.502;9.194;2023-02-19T01:09:35;12.40;73.10
4245;DHT22;2136;48.502;9.194;2023-02-19T01:12:02;12.40;72.90
4245;DHT22;2136;48.502;9.194;2023-02-19T01:14:29;12.40;72.70
4245;DHT22;2136;48.502;9.194;2023-02-19T01:16:56;12.40;72.80
4245;DHT22;2136;48.502;9.194;2023-02-19T01:19:23;12.40;72.80
4245;DHT22;2136;48.502;9.194;2023-02-19T01:21:51;12.40;72.80
4245;DHT22;2136;48.502;9.194;2023-02-19T01:24:18;12.50;72.70
4245;DHT22;2136;48.502;9.194;2023-02-19T01:26:45;12.50;72.50
4245;DHT22;2136;48.502;9.194;2023-02-19T01:29:12;12.60;72.50
4245;DHT22;2136;48.502;9.194;2023-02-19T01:31:39;12.50;72.20
4245;DHT22;2136;48.502;9.194;2023-02-19T01:34:09;12.50;72.10
4245;DHT22;2136;48.502;9.194;2023-02-19T01:36:35;12.60;72.30
4245;DHT22;2136;48.502;9.194;2023-02-19T01:39:05;12.50;72.10
4245;DHT22;2136;48.502;9.194;2023-02-19T01:41:35;12.50;72.00
4245;DHT22;2136;48.502;9.194;2023-02-19T01:44:05;12.50;71.90
4245;DHT22;2136;48.502;9.194;2023-02-19T01:46:34;12.50;71.80
4245;DHT22;2136;48.502;9.194;2023-02-19T01:49:04;12.50;71.70
4245;DHT22;2136;48.502;9.194;2023-02-19T01:51:32;12.60;71.60
4245;DHT22;2136;48.502;9.194;2023-02-19T01:54:02;12.50;71.50
4245;DHT22;2136;48.502;9.194;2023-02-19T01:56:32;12.60;71.10
4245;DHT22;2136;48.502;9.194;2023-02-19T01:58:59;12.50;71.10
4245;DHT22;2136;48.502;9.194;2023-02-19T02:01:26;12.50;71.10
4245;DHT22;2136;48.502;9.194;2023-02-19T02:03:53;12.50;70.80
4245;DHT22;2136;48.502;9.194;2023-02-19T02:06:22;12.60;70.70
4245;DHT22;2136;48.502;9.194;2023-02-19T02:08:52;12.50;70.60
4245;DHT22;2136;48.502;9.194;2023-02-19T02:11:42;12.60;70.50
4245;DHT22;2136;48.502;9.194;2023-02-19T02:14:11;12.50;70.40
4245;DHT22;2136;48.502;9.194;2023-02-19T02:16:47;12.50;70.30
4245;DHT22;2136;48.502;9.194;2023-02-19T02:19:30;12.60;70.40
4245;DHT22;2136;48.502;9.194;2023-02-19T02:22:06;12.50;70.30
4245;DHT22;2136;48.502;9.194;2023-02-19T02:25:03;12.60;70.10
4245;DHT22;2136;48.502;9.194;2023-02-19T02:27:50;12.60;69.90
4245;DHT22;2136;48.502;9.194;2023-02-19T02:30:28;12.60;69.90
4245;DHT22;2136;48.502;9.194;2023-02-19T02:33:03;12.60;69.60
4245;DHT22;2136;48.502;9.194;2023-02-19T02:35:35;12.60;69.50
4245;DHT22;2136;48.502;9.194;2023-02-19T02:38:06;12.70;69.30
4245;DHT22;2136;48.502;9.194;2023-02-19T02:40:34;12.50;68.80
4245;DHT22;2136;48.502;9.194;2023-02-19T02:43:00;12.50;68.70
4245;DHT22;2136;48.502;9.194;2023-02-19T02:45:30;12.50;68.60
4245;DHT22;2136;48.502;9.194;2023-02-19T02:48:03;12.50;68.80
4245;DHT22;2136;48.502;9.194;2023-02-19T02:50:36;12.50;68.50
4245;DHT22;2136;48.502;9.194;2023-02-19T02:53:07;12.50;68.30
4245;DHT22;2136;48.502;9.194;2023-02-19T02:55:53;12.70;68.30
4245;DHT22;2136;48.502;9.194;2023-02-19T02:58:22;12.50;67.70
4245;DHT22;2136;48.502;9.194;2023-02-19T03:00:54;12.40;67.70
4245;DHT22;2136;48.502;9.194;2023-02-19T03:03:41;12.40;67.70
4245;DHT22;2136;48.502;9.194;2023-02-19T03:06:10;12.50;67.50
4245;DHT22;2136;48.502;9.194;2023-02-19T03:08:41;12.30;66.90
4245;DHT22;2136;48.502;9.194;2023-02-19T03:11:10;12.40;67.00
4245;DHT22;2136;48.502;9.194;2023-02-19T03:14:00;12.40;66.90
4245;DHT22;2136;48.502;9.194;2023-02-19T03:16:49;12.30;66.60
4245;DHT22;2136;48.502;9.194;2023-02-19T03:19:38;12.40;66.40
4245;DHT22;2136;48.502;9.194;2023-02-19T03:22:11;12.30;66.50
4245;DHT22;2136;48.502;9.194;2023-02-19T03:24:42;12.30;66.60
4245;DHT22;2136;48.502;9.194;2023-02-19T03:27:29;12.20;66.50
4245;DHT22;2136;48.502;9.194;2023-02-19T03:30:02;12.20;66.70
4245;DHT22;2136;48.502;9.194;2023-02-19T03:32:35;12.20;66.50
4245;DHT22;2136;48.502;9.194;2023-02-19T03:35:08;12.40;66.60
4245;DHT22;2136;48.502;9.194;2023-02-19T03:37:37;12.20;66.50
4245;DHT22;2136;48.502;9.194;2023-02-19T03:40:05;12.20;66.60
4245;DHT22;2136;48.502;9.194;2023-02-19T03:42:37;12.20;66.60
4245;DHT22;2136;48.502;9.194;2023-02-19T03:45:14;12.20;66.70
4245;DHT22;2136;48.502;9.194;2023-02-19T03:47:50;12.20;66.70
4245;DHT22;2136;48.502;9.194;2023-02-19T03:50:21;12.20;66.90
4245;DHT22;2136;48.502;9.194;2023-02-19T03:52:54;12.20;67.20
4245;DHT22;2136;48.502;9.194;2023-02-19T03:55:28;12.10;67.10
4245;DHT22;2136;48.502;9.194;2023-02-19T03:58:03;12.10;67.50
4245;DHT22;2136;48.502;9.194;2023-02-19T04:00:33;12.10;67.50
4245;DHT22;2136;48.502;9.194;2023-02-19T04:03:10;12.10;68.50
4245;DHT22;2136;48.502;9.194;2023-02-19T04:05:45;12.10;67.50
4245;DHT22;2136;48.502;9.194;2023-02-19T04:08:15;12.10;67.40
4245;DHT22;2136;48.502;9.194;2023-02-19T04:10:44;12.00;67.40
4245;DHT22;2136;48.502;9.194;2023-02-19T04:13:15;12.00;67.50
4245;DHT22;2136;48.502;9.194;2023-02-19T04:15:46;12.00;67.60
4245;DHT22;2136;48.502;9.194;2023-02-19T04:18:17;12.10;67.90
4245;DHT22;2136;48.502;9.194;2023-02-19T04:20:46;12.00;67.80
4245;DHT22;2136;48.502;9.194;2023-02-19T04:23:15;12.00;67.90
4245;DHT22;2136;48.502;9.194;2023-02-19T04:25:44;12.00;68.00
4245;DHT22;2136;48.502;9.194;2023-02-19T04:28:13;12.00;68.30
4245;DHT22;2136;48.502;9.194;2023-02-19T04:30:41;12.00;68.40
4245;DHT22;2136;48.502;9.194;2023-02-19T04:33:08;12.00;68.30
4245;DHT22;2136;48.502;9.194;2023-02-19T04:35:36;11.90;68.50
4245;DHT22;2136;48.502;9.194;2023-02-19T04:38:03;11.90;68.40
4245;DHT22;2136;48.502;9.194;2023-02-19T04:40:30;11.90;68.90
4245;DHT22;2136;48.502;9.194;2023-02-19T04:42:56;11.90;69.10
4245;DHT22;2136;48.502;9.194;2023-02-19T04:45:23;11.80;69.50
4245;DHT22;2136;48.502;9.194;2023-02-19T04:47:50;11.90;69.80
4245;DHT22;2136;48.502;9.194;2023-02-19T04:50:17;11.90;69.90
4245;DHT22;2136;48.502;9.194;2023-02-19T04:52:45;11.90;70.10
4245;DHT22;2136;48.502;9.194;2023-02-19T04:55:12;11.90;70.30
4245;DHT22;2136;48.502;9.194;2023-02-19T04:57:39;12.00;70.60
4245;DHT22;2136;48.502;9.194;2023-02-19T05:00:07;11.80;70.80
4245;DHT22;2136;48.502;9.194;2023-02-19T05:02:34;11.80;71.20
4245;DHT22;2136;48.502;9.194;2023-02-19T05:05:01;11.70;71.50
4245;DHT22;2136;48.502;9.194;2023-02-19T05:07:28;11.70;71.90
4245;DHT22;2136;48.502;9.194;2023-02-19T05:09:56;11.70;72.30
4245;DHT22;2136;48.502;9.194;2023-02-19T05:12:24;11.70;72.60
4245;DHT22;2136;48.502;9.194;2023-02-19T05:14:51;11.60;72.90
4245;DHT22;2136;48.502;9.194;2023-02-19T05:17:18;11.60;73.20
4245;DHT22;2136;48.502;9.194;2023-02-19T05:19:44;11.70;73.50
4245;DHT22;2136;48.502;9.194;2023-02-19T05:22:11;11.60;73.60
4245;DHT22;2136;48.502;9.194;2023-02-19T05:24:38;11.60;73.70
4245;DHT22;2136;48.502;9.194;2023-02-19T05:27:06;11.50;74.10
4245;DHT22;2136;48.502;9.194;2023-02-19T05:29:33;11.50;74.70
4245;DHT22;2136;48.502;9.194;2023-02-19T05:32:00;11.50;74.80
4245;DHT22;2136;48.502;9.194;2023-02-19T05:34:26;11.50;75.10
4245;DHT22;2136;48.502;9.194;2023-02-19T05:36:53;11.50;76.10
4245;DHT22;2136;48.502;9.194;2023-02-19T05:39:20;11.50;75.60
4245;DHT22;2136;48.502;9.194;2023-02-19T05:41:47;11.50;75.70
4245;DHT22;2136;48.502;9.194;2023-02-19T05:44:15;11.50;75.70
4245;DHT22;2136;48.502;9.194;2023-02-19T05:46:42;11.50;75.80
4245;DHT22;2136;48.502;9.194;2023-02-19T05:49:09;11.40;76.00
4245;DHT22;2136;48.502;9.194;2023-02-19T05:51:35;11.50;76.20
4245;DHT22;2136;48.502;9.194;2023-02-19T05:54:03;11.40;76.10
4245;DHT22;2136;48.502;9.194;2023-02-19T05:56:31;11.50;76.30
4245;DHT22;2136;48.502;9.194;2023-02-19T05:58:59;11.40;76.20
4245;DHT22;2136;48.502;9.194;2023-02-19T06:01:29;11.50;77.20
4245;DHT22;2136;48.502;9.194;2023-02-19T06:03:56;11.50;76.10
4245;DHT22;2136;48.502;9.194;2023-02-19T06:06:24;11.50;76.10
4245;DHT22;2136;48.502;9.194;2023-02-19T06:08:53;11.50;75.80
4245;DHT22;2136;48.502;9.194;2023-02-19T06:11:20;11.50;75.70
4245;DHT22;2136;48.502;9.194;2023-02-19T06:13:46;11.50;75.60
4245;DHT22;2136;48.502;9.194;2023-02-19T06:16:15;11.50;75.70
4245;DHT22;2136;48.502;9.194;2023-02-19T06:18:44;11.50;75.70
4245;DHT22;2136;48.502;9.194;2023-02-19T06:21:11;11.50;75.60
4245;DHT22;2136;48.502;9.194;2023-02-19T06:23:38;11.40;75.50
4245;DHT22;2136;48.502;9.194;2023-02-19T06:26:07;11.50;75.60
4245;DHT22;2136;48.502;9.194;2023-02-19T06:28:35;11.40;75.40
4245;DHT22;2136;48.502;9.194;2023-02-19T06:31:02;11.40;75.40
4245;DHT22;2136;48.502;9.194;2023-02-19T06:33:29;11.40;75.50
4245;DHT22;2136;48.502;9.194;2023-02-19T06:35:58;11.40;75.40
4245;DHT22;2136;48.502;9.194;2023-02-19T06:38:26;11.50;75.20
4245;DHT22;2136;48.502;9.194;2023-02-19T06:40:53;11.50;75.10
4245;DHT22;2136;48.502;9.194;2023-02-19T06:43:20;11.50;75.30
4245;DHT22;2136;48.502;9.194;2023-02-19T06:45:47;11.50;75.00
4245;DHT22;2136;48.502;9.194;2023-02-19T06:48:14;11.50;75.10
4245;DHT22;2136;48.502;9.194;2023-02-19T06:50:41;11.50;74.50
4245;DHT22;2136;48.502;9.194;2023-02-19T06:53:09;11.50;74.10
4245;DHT22;2136;48.502;9.194;2023-02-19T06:55:37;11.50;74.00
4245;DHT22;2136;48.502;9.194;2023-02-19T06:58:05;11.50;74.00
4245;DHT22;2136;48.502;9.194;2023-02-19T07:00:32;11.40;74.20
4245;DHT22;2136;48.502;9.194;2023-02-19T07:02:59;11.50;74.90
4245;DHT22;2136;48.502;9.194;2023-02-19T07:05:26;11.40;78.00
4245;DHT22;2136;48.502;9.194;2023-02-19T07:07:53;11.40;80.20
4245;DHT22;2136;48.502;9.194;2023-02-19T07:10:21;11.30;82.00
4245;DHT22;2136;48.502;9.194;2023-02-19T07:12:48;11.20;83.60
4245;DHT22;2136;48.502;9.194;2023-02-19T07:15:15;11.20;85.40
4245;DHT22;2136;48.502;9.194;2023-02-19T07:17:42;11.10;87.20
4245;DHT22;2136;48.502;9.194;2023-02-19T07:20:09;11.10;88.00
4245;DHT22;2136;48.502;9.194;2023-02-19T07:22:36;11.10;88.60
4245;DHT22;2136;48.502;9.194;2023-02-19T07:25:03;11.10;88.70
4245;DHT22;2136;48.502;9.194;2023-02-19T07:27:31;11.10;88.90
4245;DHT22;2136;48.502;9.194;2023-02-19T07:29:58;11.20;89.60
4245;DHT22;2136;48.502;9.194;2023-02-19T07:32:25;11.00;88.80
4245;DHT22;2136;48.502;9.194;2023-02-19T07:34:51;11.00;87.60
4245;DHT22;2136;48.502;9.194;2023-02-19T07:37:18;11.00;87.20
4245;DHT22;2136;48.502;9.194;2023-02-19T07:39:45;11.00;86.30
4245;DHT22;2136;48.502;9.194;2023-02-19T07:42:12;10.90;84.20
4245;DHT22;2136;48.502;9.194;2023-02-19T07:44:40;10.90;84.40
4245;DHT22;2136;48.502;9.194;2023-02-19T07:47:07;11.00;84.60
4245;DHT22;2136;48.502;9.194;2023-02-19T07:49:34;10.90;84.00
4245;DHT22;2136;48.502;9.194;2023-02-19T07:52:00;11.00;83.00
4245;DHT22;2136;48.502;9.194;2023-02-19T07:54:27;11.00;81.20
4245;DHT22;2136;48.502;9.194;2023-02-19T07:56:54;10.90;80.00
4245;DHT22;2136;48.502;9.194;2023-02-19T07:59:21;11.00;78.00
4245;DHT22;2136;48.502;9.194;2023-02-19T08:01:49;11.00;77.00
4245;DHT22;2136;48.502;9.194;2023-02-19T08:04:34;11.00;76.70
4245;DHT22;2136;48.502;9.194;2023-02-19T08:07:01;11.10;75.90
4245;DHT22;2136;48.502;9.194;2023-02-19T08:09:29;11.10;75.30
4245;DHT22;2136;48.502;9.194;2023-02-19T08:11:56;11.10;74.60
4245;DHT22;2136;48.502;9.194;2023-02-19T08:14:40;11.10;73.80
4245;DHT22;2136;48.502;9.194;2023-02-19T08:17:08;11.20;73.00
4245;DHT22;2136;48.502;9.194;2023-02-19T08:19:35;11.20;71.80
4245;DHT22;2136;48.502;9.194;2023-02-19T08:22:02;11.30;71.20
4245;DHT22;2136;48.502;9.194;2023-02-19T08:24:30;11.20;71.10
4245;DHT22;2136;48.502;9.194;2023-02-19T08:26:58;11.40;71.00
4245;DHT22;2136;48.502;9.194;2023-02-19T08:29:25;11.30;70.80
4245;DHT22;2136;48.502;9.194;2023-02-19T08:31:52;11.30;70.80
4245;DHT22;2136;48.502;9.194;2023-02-19T08:34:20;11.30;71.30
4245;DHT22;2136;48.502;9.194;2023-02-19T08:36:47;11.30;71.30
4245;DHT22;2136;48.502;9.194;2023-02-19T08:39:14;11.30;71.40
4245;DHT22;2136;48.502;9.194;2023-02-19T08:41:40;11.30;72.00
4245;DHT22;2136;48.502;9.194;2023-02-19T08:44:07;11.20;73.10
4245;DHT22;2136;48.502;9.194;2023-02-19T08:46:34;11.20;73.60
4245;DHT22;2136;48.502;9.194;2023-02-19T08:49:01;11.20;74.00
4245;DHT22;2136;48.502;9.194;2023-02-19T08:51:29;11.20;74.80
4245;DHT22;2136;48.502;9.194;2023-02-19T08:53:56;11.10;75.00
4245;DHT22;2136;48.502;9.194;2023-02-19T08:56:23;11.20;75.10
4245;DHT22;2136;48.502;9.194;2023-02-19T08:58:49;11.30;74.40
4245;DHT22;2136;48.502;9.194;2023-02-19T09:01:17;11.30;74.20
4245;DHT22;2136;48.502;9.194;2023-02-19T09:03:43;11.30;74.00
4245;DHT22;2136;48.502;9.194;2023-02-19T09:06:14;11.30;74.20
4245;DHT22;2136;48.502;9.194;2023-02-19T09:08:43;11.30;72.90
4245;DHT22;2136;48.502;9.194;2023-02-19T09:11:10;11.40;73.20
4245;DHT22;2136;48.502;9.194;2023-02-19T09:13:37;11.40;72.40
4245;DHT22;2136;48.502;9.194;2023-02-19T09:16:05;11.40;71.60
4245;DHT22;2136;48.502;9.194;2023-02-19T09:18:32;11.50;70.60
4245;DHT22;2136;48.502;9.194;2023-02-19T09:20:59;11.50;70.40
4245;DHT22;2136;48.502;9.194;2023-02-19T09:23:27;11.60;69.70
4245;DHT22;2136;48.502;9.194;2023-02-19T09:25:58;11.70;69.50
4245;DHT22;2136;48.502;9.194;2023-02-19T09:28:25;11.60;70.30
4245;DHT22;2136;48.502;9.194;2023-02-19T09:30:52;11.60;69.20
4245;DHT22;2136;48.502;9.194;2023-02-19T09:33:19;11.70;68.70
4245;DHT22;2136;48.502;9.194;2023-02-19T09:35:46;11.70;68.70
4245;DHT22;2136;48.502;9.194;2023-02-19T09:38:13;11.70;68.50
4245;DHT22;2136;48.502;9.194;2023-02-19T09:40:40;11.60;68.20
4245;DHT22;2136;48.502;9.194;2023-02-19T09:43:12;11.60;68.10
4245;DHT22;2136;48.502;9.194;2023-02-19T09:45:40;11.60;68.50
4245;DHT22;2136;48.502;9.194;2023-02-19T09:48:09;11.60;69.20
4245;DHT22;2136;48.502;9.194;2023-02-19T09:50:39;11.60;70.10
4245;DHT22;2136;48.502;9.194;2023-02-19T09:53:12;11.60;70.30
4245;DHT22;2136;48.502;9.194;2023-02-19T09:55:40;11.70;71.00
4245;DHT22;2136;48.502;9.194;2023-02-19T09:58:27;11.80;70.90
4245;DHT22;2136;48.502;9.194;2023-02-19T10:00:59;11.90;70.90
4245;DHT22;2136;48.502;9.194;2023-02-19T10:03:28;12.00;70.10
4245;DHT22;2136;48.502;9.194;2023-02-19T10:05:59;12.00;68.80
4245;DHT22;2136;48.502;9.194;2023-02-19T10:08:31;12.00;67.40
4245;DHT22;2136;48.502;9.194;2023-02-19T10:10:59;11.90;66.70
4245;DHT22;2136;48.502;9.194;2023-02-19T10:13:30;11.80;65.40
4245;DHT22;2136;48.502;9.194;2023-02-19T10:16:01;11.80;65.00
4245;DHT22;2136;48.502;9.194;2023-02-19T10:18:34;11.80;65.10
4245;DHT22;2136;48.502;9.194;2023-02-19T10:21:01;11.70;65.00
4245;DHT22;2136;48.502;9.194;2023-02-19T10:23:28;11.70;66.50
4245;DHT22;2136;48.502;9.194;2023-02-19T10:25:57;11.70;66.80
4245;DHT22;2136;48.502;9.194;2023-02-19T10:28:28;11.70;68.30
4245;DHT22;2136;48.502;9.194;2023-02-19T10:30:58;11.70;69.90
4245;DHT22;2136;48.502;9.194;2023-02-19T10:33:25;11.60;71.40
4245;DHT22;2136;48.502;9.194;2023-02-19T10:35:55;11.50;73.00
4245;DHT22;2136;48.502;9.194;2023-02-19T10:38:25;11.50;74.30
4245;DHT22;2136;48.502;9.194;2023-02-19T10:40:59;11.40;74.70
4245;DHT22;2136;48.502;9.194;2023-02-19T10:43:31;11.30;76.60
4245;DHT22;2136;48.502;9.194;2023-02-19T10:46:04;11.30;78.80
4245;DHT22;2136;48.502;9.194;2023-02-19T10:48:34;11.30;77.80
4245;DHT22;2136;48.502;9.194;2023-02-19T10:51:05;11.20;78.40
4245;DHT22;2136;48.502;9.194;2023-02-19T10:53:41;11.30;79.80
4245;DHT22;2136;48.502;9.194;2023-02-19T10:56:12;11.40;79.40
4245;DHT22;2136;48.502;9.194;2023-02-19T10:58:42;11.40;78.70
4245;DHT22;2136;48.502;9.194;2023-02-19T11:01:14;11.40;78.70
4245;DHT22;2136;48.502;9.194;2023-02-19T11:03:41;11.60;79.60
4245;DHT22;2136;48.502;9.194;2023-02-19T11:06:10;11.70;80.60
4245;DHT22;2136;48.502;9.194;2023-02-19T11:08:45;11.90;80.80
4245;DHT22;2136;48.502;9.194;2023-02-19T11:11:28;12.10;80.70
4245;DHT22;2136;48.502;9.194;2023-02-19T11:13:59;12.10;78.70
4245;DHT22;2136;48.502;9.194;2023-02-19T11:16:38;12.20;78.60
4245;DHT22;2136;48.502;9.194;2023-02-19T11:19:21;12.30;78.80
4245;DHT22;2136;48.502;9.194;2023-02-19T11:21:49;12.20;77.30
4245;DHT22;2136;48.502;9.194;2023-02-19T11:24:22;12.40;77.90
4245;DHT22;2136;48.502;9.194;2023-02-19T11:26:51;12.30;77.50
4245;DHT22;2136;48.502;9.194;2023-02-19T11:29:22;12.30;75.90
4245;DHT22;2136;48.502;9.194;2023-02-19T11:31:49;12.40;75.90
4245;DHT22;2136;48.502;9.194;2023-02-19T11:34:26;12.70;75.80
4245;DHT22;2136;48.502;9.194;2023-02-19T11:37:08;12.80;75.00
4245;DHT22;2136;48.502;9.194;2023-02-19T11:39:36;12.90;73.50
4245;DHT22;2136;48.502;9.194;2023-02-19T11:42:13;12.90;70.90
4245;DHT22;2136;48.502;9.194;2023-02-19T11:45:08;12.90;68.20
4245;DHT22;2136;48.502;9.194;2023-02-19T11:47:54;12.80;65.60
4245;DHT22;2136;48.502;9.194;2023-02-19T11:50:26;12.70;65.80
4245;DHT22;2136;48.502;9.194;2023-02-19T11:53:03;12.80;66.60
4245;DHT22;2136;48.502;9.194;2023-02-19T11:55:45;12.70;64.70
4245;DHT22;2136;48.502;9.194;2023-02-19T11:58:34;12.90;64.20
4245;DHT22;2136;48.502;9.194;2023-02-19T12:01:11;12.70;62.20
4245;DHT22;2136;48.502;9.194;2023-02-19T12:03:49;12.60;60.20
4245;DHT22;2136;48.502;9.194;2023-02-19T12:06:25;12.80;59.70
4245;DHT22;2136;48.502;9.194;2023-02-19T12:09:15;12.60;59.20
4245;DHT22;2136;48.502;9.194;2023-02-19T12:11:57;12.60;58.50
4245;DHT22;2136;48.502;9.194;2023-02-19T12:14:52;12.60;59.00
4245;DHT22;2136;48.502;9.194;2023-02-19T12:20:33;12.50;58.70
4245;DHT22;2136;48.502;9.194;2023-02-19T12:23:26;12.40;58.70
4245;DHT22;2136;48.502;9.194;2023-02-19T12:26:01;12.50;59.00
4245;DHT22;2136;48.502;9.194;2023-02-19T12:28:42;12.60;59.20
4245;DHT22;2136;48.502;9.194;2023-02-19T12:31:42;12.60;58.90
4245;DHT22;2136;48.502;9.194;2023-02-19T12:34:43;12.70;58.20
4245;DHT22;2136;48.502;9.194;2023-02-19T12:37:20;12.60;58.00
4245;DHT22;2136;48.502;9.194;2023-02-19T12:39:58;12.60;58.40
4245;DHT22;2136;48.502;9.194;2023-02-19T12:42:39;12.60;58.60
4245;DHT22;2136;48.502;9.194;2023-02-19T12:45:16;12.60;58.60
4245;DHT22;2136;48.502;9.194;2023-02-19T12:47:47;12.50;58.60
4245;DHT22;2136;48.502;9.194;2023-02-19T12:50:20;12.50;58.50
4245;DHT22;2136;48.502;9.194;2023-02-19T12:52:51;12.50;58.60
4245;DHT22;2136;48.502;9.194;2023-02-19T12:55:21;12.60;58.70
4245;DHT22;2136;48.502;9.194;2023-02-19T12:57:50;12.50;59.10
4245;DHT22;2136;48.502;9.194;2023-02-19T13:00:28;12.60;58.70
4245;DHT22;2136;48.502;9.194;2023-02-19T13:03:01;12.60;58.80
4245;DHT22;2136;48.502;9.194;2023-02-19T13:05:39;12.60;58.80
4245;DHT22;2136;48.502;9.194;2023-02-19T13:08:13;12.70;59.30
4245;DHT22;2136;48.502;9.194;2023-02-19T13:10:44;12.50;59.40
4245;DHT22;2136;48.502;9.194;2023-02-19T13:13:16;12.60;59.60
4245;DHT22;2136;48.502;9.194;2023-02-19T13:15:47;12.60;59.70
4245;DHT22;2136;48.502;9.194;2023-02-19T13:18:19;12.70;59.60
4245;DHT22;2136;48.502;9.194;2023-02-19T13:20:50;12.80;59.40
4245;DHT22;2136;48.502;9.194;2023-02-19T13:23:21;12.80;59.70
4245;DHT22;2136;48.502;9.194;2023-02-19T13:26:29;12.90;59.50
4245;DHT22;2136;48.502;9.194;2023-02-19T13:29:19;12.90;58.60
4245;DHT22;2136;48.502;9.194;2023-02-19T13:32:19;13.00;58.30
4245;DHT22;2136;48.502;9.194;2023-02-19T13:34:58;13.20;57.20
4245;DHT22;2136;48.502;9.194;2023-02-19T13:37:31;13.40;56.00
4245;DHT22;2136;48.502;9.194;2023-02-19T13:40:02;13.60;56.00
4245;DHT22;2136;48.502;9.194;2023-02-19T13:42:32;13.60;55.10
4245;DHT22;2136;48.502;9.194;2023-02-19T13:45:00;13.60;54.50
4245;DHT22;2136;48.502;9.194;2023-02-19T13:47:47;13.50;54.00
4245;DHT22;2136;48.502;9.194;2023-02-19T13:50:20;13.50;54.20
4245;DHT22;2136;48.502;9.194;2023-02-19T13:52:49;13.50;54.30
4245;DHT22;2136;48.502;9.194;2023-02-19T13:58:51;13.30;55.50
4245;DHT22;2136;48.502;9.194;2023-02-19T14:04:18;13.30;55.00
4245;DHT22;2136;48.502;9.194;2023-02-19T14:07:33;13.30;54.00
4245;DHT22;2136;48.502;9.194;2023-02-19T14:10:03;13.20;53.80
4245;DHT22;2136;48.502;9.194;2023-02-19T14:12:31;13.10;53.80
4245;DHT22;2136;48.502;9.194;2023-02-19T14:18:41;12.80;54.10
4245;DHT22;2136;48.502;9.194;2023-02-19T14:21:16;12.90;54.40
4245;DHT22;2136;48.502;9.194;2023-02-19T14:23:43;13.00;54.60
4245;DHT22;2136;48.502;9.194;2023-02-19T14:26:12;12.70;54.40
4245;DHT22;2136;48.502;9.194;2023-02-19T14:28:43;12.60;54.70
4245;DHT22;2136;48.502;9.194;2023-02-19T14:31:28;12.60;54.60
4245;DHT22;2136;48.502;9.194;2023-02-19T14:33:57;12.70;54.90
4245;DHT22;2136;48.502;9.194;2023-02-19T14:36:32;12.40;54.90
4245;DHT22;2136;48.502;9.194;2023-02-19T14:39:02;12.50;55.30
4245;DHT22;2136;48.502;9.194;2023-02-19T14:41:36;12.40;55.20
4245;DHT22;2136;48.502;9.194;2023-02-19T14:44:06;12.20;55.50
4245;DHT22;2136;48.502;9.194;2023-02-19T14:46:36;12.10;56.10
4245;DHT22;2136;48.502;9.194;2023-02-19T14:49:07;12.10;56.40
4245;DHT22;2136;48.502;9.194;2023-02-19T14:51:42;12.00;56.40
4245;DHT22;2136;48.502;9.194;2023-02-19T14:54:15;12.00;57.20
4245;DHT22;2136;48.502;9.194;2023-02-19T14:56:45;11.80;58.50
4245;DHT22;2136;48.502;9.194;2023-02-19T14:59:25;11.80;59.30
4245;DHT22;2136;48.502;9.194;2023-02-19T15:01:54;11.80;59.70
4245;DHT22;2136;48.502;9.194;2023-02-19T15:04:23;11.60;59.50
4245;DHT22;2136;48.502;9.194;2023-02-19T15:06:50;11.60;59.40
4245;DHT22;2136;48.502;9.194;2023-02-19T15:09:19;11.70;59.80
4245;DHT22;2136;48.502;9.194;2023-02-19T15:11:48;11.80;59.90
4245;DHT22;2136;48.502;9.194;2023-02-19T15:14:19;11.70;59.70
4245;DHT22;2136;48.502;9.194;2023-02-19T15:16:47;11.70;59.80
4245;DHT22;2136;48.502;9.194;2023-02-19T15:19:15;11.70;59.90
4245;DHT22;2136;48.502;9.194;2023-02-19T15:21:45;11.70;60.20
4245;DHT22;2136;48.502;9.194;2023-02-19T15:24:14;11.80;60.50
4245;DHT22;2136;48.502;9.194;2023-02-19T15:26:42;11.70;60.60
4245;DHT22;2136;48.502;9.194;2023-02-19T15:29:13;11.80;61.00
4245;DHT22;2136;48.502;9.194;2023-02-19T15:31:44;11.70;61.30
4245;DHT22;2136;48.502;9.194;2023-02-19T15:34:15;11.80;61.50
4245;DHT22;2136;48.502;9.194;2023-02-19T15:36:42;11.90;62.10
4245;DHT22;2136;48.502;9.194;2023-02-19T15:39:18;11.70;62.00
4245;DHT22;2136;48.502;9.194;2023-02-19T15:41:54;11.60;63.30
4245;DHT22;2136;48.502;9.194;2023-02-19T15:44:39;11.60;64.80
4245;DHT22;2136;48.502;9.194;2023-02-19T15:47:18;11.50;66.10
4245;DHT22;2136;48.502;9.194;2023-02-19T15:49:51;11.50;66.90
4245;DHT22;2136;48.502;9.194;2023-02-19T15:52:27;11.50;67.40
4245;DHT22;2136;48.502;9.194;2023-02-19T15:55:01;11.40;67.80
4245;DHT22;2136;48.502;9.194;2023-02-19T15:57:34;11.40;68.20
4245;DHT22;2136;48.502;9.194;2023-02-19T16:00:09;11.40;68.80
4245;DHT22;2136;48.502;9.194;2023-02-19T16:02:38;11.40;69.30
4245;DHT22;2136;48.502;9.194;2023-02-19T16:05:11;11.30;69.50
4245;DHT22;2136;48.502;9.194;2023-02-19T16:07:40;11.30;69.80
4245;DHT22;2136;48.502;9.194;2023-02-19T16:10:20;11.30;69.80
4245;DHT22;2136;48.502;9.194;2023-02-19T16:12:55;11.30;70.10
4245;DHT22;2136;48.502;9.194;2023-02-19T16:15:24;11.30;70.20
4245;DHT22;2136;48.502;9.194;2023-02-19T16:17:51;11.40;70.40
4245;DHT22;2136;48.502;9.194;2023-02-19T16:20:21;11.30;70.30
4245;DHT22;2136;48.502;9.194;2023-02-19T16:22:48;11.30;70.20
4245;DHT22;2136;48.502;9.194;2023-02-19T16:25:24;11.30;70.20
4245;DHT22;2136;48.502;9.194;2023-02-19T16:27:52;11.30;69.80
4245;DHT22;2136;48.502;9.194;2023-02-19T16:30:27;11.20;69.40
4245;DHT22;2136;48.502;9.194;2023-02-19T16:33:20;11.20;69.60
4245;DHT22;2136;48.502;9.194;2023-02-19T16:35:49;11.20;69.60
4245;DHT22;2136;48.502;9.194;2023-02-19T16:38:17;11.20;69.50
4245;DHT22;2136;48.502;9.194;2023-02-19T16:41:04;11.10;69.20